Upton, MA (01568)

11:05 AM EDT on August 20, 2014 (GMT -0400)
Bowdoin | Change Station
CLOSE
Current Station
Personal Weather Station
Location: Milford, MA
Elevation: 525 ft
Nearby Weather Stations

Elev 525 ft 42.15 °N, 71.55 °W | Updated 2 minutes ago

Clear
Clear
72.5 °F
Feels Like 75 °F
N
0.0
Wind Variable Wind from SSW

Today
High -- | Low -- °F
--% Chance of Precip.
Yesterday
High -- | Low -- °F
Precip. -- in
5:59 AM 7:39 PM
Waning Crescent, 21% visible
Pressure 30.04 in
Visibility 10.0 miles
Clouds Clear
Heat Index 75 °F
Dew Point 62 °F
Humidity 70%
Rainfall 0.00 in
Snow Depth Not available.
UV 8 out of 12
Pollen 9.50 out of 12
PM2.5 Moderate
Flu Activity Not available.
METAR KORH 201454Z VRB03KT 10SM CLR 23/13 A3004 RMK AO2 SLP170 T02280133 50006

More Conditions Fewer Conditions

Pressure 30.04 in
Visibility 10.0 miles
Clouds Clear
Heat Index 75 °F
Dew Point 62 °F
Humidity 70%
Rainfall 0.00 in
Snow Depth Not available.
UV 8 out of 12
Pollen 9.50 out of 12
PM2.5 Moderate
Flu Activity Not available.
METAR KORH 201454Z VRB03KT 10SM CLR 23/13 A3004 RMK AO2 SLP170 T02280133 50006

More Conditions Fewer Conditions

10-Day Weather Forecast

Almanac

Astronomy

Aug. 20, 2014 Rise Set
Actual Time 5:59 AM EDT 7:39 PM EDT
Civil Twilight 5:29 AM EDT 8:09 PM EDT
Nautical Twilight 4:53 AM EDT 8:45 PM EDT
Astronomical Twilight 4:14 AM EDT 9:23 PM EDT
Moon 1:34 AM EDT 4:24 PM EDT
Length of Visible Light 14h 39m
Length of Day
13h 40m
Tomorrow will be 2m 35s shorter.
Waning Crescent, 21% of the Moon is Illuminated
Today
Waning Crescent
Aug 25
New
Sep 2
First Quarter
Sep 8
Full
Sep 15
Last Quarter

Today's Extremes

State Highs State Lows

Community

WunderPhotos

Upload Photos

1,745,661 photos uploaded!

Nearby

Air Quality

  Air Quality AQ Index Pollutant
Yesterday Good
OZONE
Yesterday Good
PM2.5
Current Moderate
PM2.5
Wednesday Good
PM2.5
Wednesday Good
OZONE

Snow Depth

Station Depth Elevation
No new snow has been reported.

Earthquake Activity

City Distance Mag. Time & Date
Deep River Center, Connecticut 73 miles 2.7 3:09 AM EDT
2014-08-14
Minimum magnitude displayed is 2.5.

Coastal Water Temperatures

Place Temperature
Newport, RI 68.0 °F
Quonset Point, RI 71.1 °F
Conimicut Light, RI 73.0 °F

Nearby Weather Stations